INFORMACIÓN METAR y TAF
METAR FOR LESB
ADDS - METARS form results

(1324 UTC 18 August 2019)
Data provider http://aviationweather.gov/metar/data/
 
METAR text: LESB 181300Z AUTO 23012KT 200V270 CAVOK 33/18 Q1013
Conditions at: LESB (MALLORCA SON BON, ES) observed 1300 UTC 18 August 2019
Temperature: 33.0°C (91°F)
Dewpoint: 18.0°C (64°F) [RH = 41%]
Pressure (altimeter): 29.91 inches Hg (1013.0 mb)
Winds: from the SW (230 degrees) at 14 MPH (12 knots; 6.2 m/s)
Visibility: 6 or more miles (10+ km)
Ceiling: ceiling and visibility are OK
Clouds: unknown
Weather: no significant weather observed at this time

METAR text: LESB 181230Z AUTO 23012KT 200V260 CAVOK 33/18 Q1014
Conditions at: LESB (MALLORCA SON BON, ES) observed 1230 UTC 18 August 2019
Temperature: 33.0°C (91°F)
Dewpoint: 18.0°C (64°F) [RH = 41%]
Pressure (altimeter): 29.94 inches Hg (1014.0 mb)
Winds: from the SW (230 degrees) at 14 MPH (12 knots; 6.2 m/s)
Visibility: 6 or more miles (10+ km)
Ceiling: ceiling and visibility are OK
Clouds: unknown
Weather: no significant weather observed at this time

 MAPA DE AEROPUERTO

 INFORMACIÓN DE PISTA
Pista 06 Longitud 3281 ft Ancho 72 ft
Elevación 0 ft Umbral desplazado 0 ft Rumbo de pista 49
Pista 24 Longitud 3281 ft Ancho 72 ft
Elevación 0 ft Umbral desplazado 0 ft Rumbo de pista 229

 FRECUANCIAS DEL AEROPUERTO
Tipo APP Nombre PALMA APP Frecuencia 119.4 MHZ
Tipo OPS Nombre PALMA OPS Frecuencia 130.25 MHZ
Tipo TWR Nombre PALMA TWR Frecuencia 118.3 MHZ

 RADIO AYUDAS DEL AEROPUERTO



Powered by Virtual Airlines Manager [v2.6.2]